createdAt,value
2022-10-18T00:01:03.335Z,4.90
2022-10-18T00:03:31.550Z,5.38
2022-10-18T00:06:02.002Z,4.50
2022-10-18T00:08:30.362Z,4.88
2022-10-18T00:10:58.626Z,3.90
2022-10-18T00:13:27.803Z,5.07
2022-10-18T00:15:59.249Z,4.20
2022-10-18T00:18:27.605Z,4.65
2022-10-18T00:21:01.776Z,5.35
2022-10-18T00:23:31.504Z,4.72
2022-10-18T00:26:04.804Z,4.75
2022-10-18T00:28:33.799Z,5.40
2022-10-18T00:31:14.512Z,5.70
2022-10-18T00:33:43.987Z,5.00
2022-10-18T00:36:14.377Z,3.60
2022-10-18T00:38:42.475Z,4.47
2022-10-18T00:41:14.795Z,4.63
2022-10-18T00:43:58.012Z,5.00
2022-10-18T00:46:28.238Z,4.18
2022-10-18T00:48:57.152Z,4.95
2022-10-18T00:51:31.017Z,3.70
2022-10-18T00:53:59.235Z,3.92
2022-10-18T00:56:27.962Z,4.85
2022-10-18T00:58:56.303Z,4.05
2022-10-18T01:01:27.542Z,4.32
2022-10-18T01:03:58.107Z,3.80
2022-10-18T01:06:29.807Z,4.25
2022-10-18T01:09:12.634Z,4.28
2022-10-18T01:12:04.225Z,4.28
2022-10-18T01:14:46.434Z,5.20
2022-10-18T01:17:19.448Z,4.88
2022-10-18T01:20:30.971Z,4.45
2022-10-18T01:23:07.117Z,4.22
2022-10-18T01:25:43.282Z,5.15
2022-10-18T01:28:29.733Z,3.60
2022-10-18T01:31:02.035Z,4.90
2022-10-18T01:33:38.601Z,4.88
2022-10-18T01:36:12.844Z,5.18
2022-10-18T01:38:43.624Z,4.70
2022-10-18T01:41:15.837Z,5.20
2022-10-18T01:43:46.711Z,5.25
2022-10-18T01:46:21.206Z,4.65
2022-10-18T01:48:54.962Z,4.40
2022-10-18T01:51:26.801Z,4.80
2022-10-18T01:53:55.409Z,4.80
2022-10-18T01:56:38.993Z,4.47
2022-10-18T01:59:39.556Z,4.88
2022-10-18T02:02:20.169Z,5.25
2022-10-18T02:04:55.555Z,4.20
2022-10-18T02:07:30.482Z,5.45
2022-10-18T02:10:07.033Z,6.15
2022-10-18T02:12:37.281Z,5.88
2022-10-18T02:15:08.510Z,5.05
2022-10-18T02:17:39.236Z,6.07
2022-10-18T02:20:09.947Z,5.00
2022-10-18T02:22:42.450Z,6.50
2022-10-18T02:25:17.595Z,6.13
2022-10-18T02:27:45.686Z,6.40
2022-10-18T02:30:15.563Z,6.28
2022-10-18T02:32:50.736Z,5.10
2022-10-18T02:35:23.039Z,6.25
2022-10-18T02:37:53.498Z,6.03
2022-10-18T02:40:21.717Z,4.82
2022-10-18T02:42:52.651Z,5.32
2022-10-18T02:45:21.050Z,4.72
2022-10-18T02:47:50.414Z,5.63
2022-10-18T02:50:18.942Z,6.93
2022-10-18T02:52:46.976Z,5.70
2022-10-18T02:55:15.184Z,6.07
2022-10-18T02:57:43.355Z,5.32
2022-10-18T03:00:12.353Z,5.63
2022-10-18T03:02:40.669Z,6.05
2022-10-18T03:05:10.216Z,5.93
2022-10-18T03:07:38.241Z,5.72
2022-10-18T03:10:07.214Z,6.70
2022-10-18T03:12:35.454Z,5.60
2022-10-18T03:15:03.447Z,7.38
2022-10-18T03:17:31.819Z,6.40
2022-10-18T03:20:00.019Z,4.82
2022-10-18T03:25:02.636Z,6.93
2022-10-18T03:27:30.828Z,6.70
2022-10-18T03:30:01.027Z,6.95
2022-10-18T03:32:29.122Z,6.85
2022-10-18T03:34:57.625Z,5.90
2022-10-18T03:37:25.697Z,5.90
2022-10-18T03:39:55.441Z,7.10
2022-10-18T03:42:25.537Z,7.50
2022-10-18T03:44:53.550Z,8.30
2022-10-18T03:47:21.938Z,7.18
2022-10-18T03:49:53.230Z,6.72
2022-10-18T03:52:24.646Z,6.40
2022-10-18T03:54:54.092Z,6.97
2022-10-18T03:57:22.172Z,7.45
2022-10-18T03:59:50.156Z,6.55
2022-10-18T04:02:18.680Z,4.68
2022-10-18T04:04:46.704Z,3.72
2022-10-18T04:07:14.763Z,5.65
2022-10-18T04:09:42.815Z,6.60
2022-10-18T04:12:12.174Z,5.20
2022-10-18T04:14:40.181Z,8.10
2022-10-18T04:17:08.607Z,6.13
2022-10-18T04:19:36.694Z,7.00
2022-10-18T04:22:04.734Z,6.95
2022-10-18T04:24:32.769Z,7.45
2022-10-18T04:27:00.755Z,7.15
2022-10-18T04:29:30.142Z,6.60
2022-10-18T04:31:58.530Z,6.80
2022-10-18T04:34:26.557Z,8.60
2022-10-18T04:36:54.545Z,7.30
2022-10-18T04:39:23.055Z,7.68
2022-10-18T04:41:51.027Z,8.32
2022-10-18T04:44:19.036Z,8.18
2022-10-18T04:46:48.470Z,6.00
2022-10-18T04:49:16.658Z,9.18
2022-10-18T04:51:44.643Z,9.85
2022-10-18T04:54:12.937Z,9.95
2022-10-18T04:56:40.971Z,6.95
2022-10-18T04:59:09.095Z,8.98
2022-10-18T05:01:37.526Z,5.68
2022-10-18T05:04:06.954Z,9.32
2022-10-18T05:06:35.319Z,6.75
2022-10-18T05:09:03.314Z,6.43
2022-10-18T05:11:31.359Z,8.05
2022-10-18T05:13:59.664Z,7.13
2022-10-18T05:16:28.411Z,8.10
2022-10-18T05:18:56.445Z,7.90
2022-10-18T05:21:26.219Z,7.97
2022-10-18T05:23:57.074Z,7.97
2022-10-18T05:26:25.125Z,8.10
2022-10-18T05:28:53.211Z,8.00
2022-10-18T05:31:21.347Z,7.68
2022-10-18T05:33:49.759Z,7.93
2022-10-18T05:36:18.165Z,7.95
2022-10-18T05:38:48.365Z,7.63
2022-10-18T05:41:16.787Z,8.07
2022-10-18T05:43:45.122Z,7.25
2022-10-18T05:46:15.477Z,6.78
2022-10-18T05:48:44.920Z,6.70
2022-10-18T05:51:13.398Z,7.55
2022-10-18T05:53:41.745Z,6.03
2022-10-18T05:56:12.479Z,5.85
2022-10-18T05:58:41.270Z,6.22
2022-10-18T06:01:10.234Z,6.88
2022-10-18T06:03:38.702Z,6.10
2022-10-18T06:06:09.197Z,5.85
2022-10-18T06:08:37.943Z,5.78
2022-10-18T06:11:08.789Z,6.72
2022-10-18T06:13:41.947Z,6.07
2022-10-18T06:16:10.401Z,6.45
2022-10-18T06:18:38.711Z,6.22
2022-10-18T06:21:07.401Z,5.95
2022-10-18T06:23:36.303Z,6.65
2022-10-18T06:26:06.147Z,5.57
2022-10-18T06:28:36.227Z,5.78
2022-10-18T06:31:07.020Z,6.28
2022-10-18T06:33:36.230Z,6.65
2022-10-18T06:36:06.596Z,6.30
2022-10-18T06:38:35.395Z,6.38
2022-10-18T06:41:04.236Z,7.00
2022-10-18T06:43:32.682Z,6.65
2022-10-18T06:46:03.432Z,6.80
2022-10-18T06:48:33.407Z,6.35
2022-10-18T06:51:04.031Z,6.50
2022-10-18T06:53:33.638Z,6.13
2022-10-18T06:56:02.155Z,6.32
2022-10-18T06:58:30.839Z,6.72
2022-10-18T07:00:59.584Z,6.68
2022-10-18T07:03:27.567Z,7.45
2022-10-18T07:06:02.458Z,6.40
2022-10-18T07:08:31.257Z,6.35
2022-10-18T07:10:59.375Z,6.82
2022-10-18T07:13:32.864Z,6.82
2022-10-18T07:16:03.532Z,6.25
2022-10-18T07:18:31.523Z,6.63
2022-10-18T07:21:02.698Z,6.20
2022-10-18T07:23:30.707Z,7.57
2022-10-18T07:25:58.682Z,7.53
2022-10-18T07:28:26.939Z,7.88
2022-10-18T07:30:55.038Z,7.47
2022-10-18T07:33:23.501Z,6.53
2022-10-18T07:35:51.465Z,8.73
2022-10-18T07:38:20.863Z,9.30
2022-10-18T07:40:48.890Z,11.82
2022-10-18T07:43:16.866Z,9.40
2022-10-18T07:45:53.518Z,9.20
2022-10-18T07:48:21.634Z,8.90
2022-10-18T07:50:49.697Z,8.82
2022-10-18T07:53:17.977Z,8.85
2022-10-18T07:55:47.337Z,7.55
2022-10-18T07:58:15.363Z,8.48
2022-10-18T08:00:43.382Z,10.85
2022-10-18T08:03:11.410Z,10.05
2022-10-18T08:05:39.428Z,7.55
2022-10-18T08:08:08.167Z,7.47
2022-10-18T08:10:36.885Z,6.78
2022-10-18T08:13:06.322Z,6.35
2022-10-18T08:15:34.306Z,7.65
2022-10-18T08:18:02.355Z,6.78
2022-10-18T08:20:31.977Z,6.93
2022-10-18T08:23:00.855Z,9.10
2022-10-18T08:25:29.387Z,9.05
2022-10-18T08:27:57.528Z,8.30
2022-10-18T08:30:26.903Z,7.35
2022-10-18T08:32:55.088Z,7.93
2022-10-18T08:35:23.212Z,8.20
2022-10-18T08:37:51.357Z,8.45
2022-10-18T08:40:20.349Z,8.40
2022-10-18T08:43:08.394Z,9.85
2022-10-18T08:45:43.325Z,8.18
2022-10-18T08:48:24.663Z,7.93
2022-10-18T08:50:55.343Z,9.25
2022-10-18T08:53:29.292Z,8.25
2022-10-18T08:56:04.818Z,7.18
2022-10-18T08:58:33.985Z,9.68
2022-10-18T09:01:15.621Z,7.60
2022-10-18T09:04:01.498Z,8.27
2022-10-18T09:06:36.311Z,10.13
2022-10-18T09:09:24.498Z,6.63
2022-10-18T09:12:03.777Z,9.70
2022-10-18T09:14:49.455Z,9.23
2022-10-18T09:17:27.688Z,9.95
2022-10-18T09:20:09.450Z,7.75
2022-10-18T09:22:52.921Z,8.50
2022-10-18T09:25:23.729Z,8.38
2022-10-18T09:27:57.377Z,8.82
2022-10-18T09:30:42.579Z,9.65
2022-10-18T09:33:31.886Z,10.45
2022-10-18T09:36:04.777Z,11.43
2022-10-18T09:38:36.122Z,10.82
2022-10-18T09:41:12.137Z,10.95
2022-10-18T09:43:48.705Z,11.10
2022-10-18T09:46:19.455Z,6.68
2022-10-18T09:48:52.738Z,6.93
2022-10-18T09:51:22.854Z,8.10
2022-10-18T09:54:04.432Z,7.78
2022-10-18T09:56:40.866Z,7.50
2022-10-18T09:59:36.441Z,7.50
2022-10-18T10:02:05.085Z,5.80
2022-10-18T10:04:34.817Z,7.25
2022-10-18T10:07:03.634Z,6.35
2022-10-18T10:09:38.040Z,6.65
2022-10-18T10:12:06.642Z,7.03
2022-10-18T10:14:44.999Z,6.50
2022-10-18T10:17:24.697Z,6.97
2022-10-18T10:20:03.637Z,5.93
2022-10-18T10:22:36.255Z,6.97
2022-10-18T10:25:05.214Z,6.32
2022-10-18T10:27:41.054Z,6.72
2022-10-18T10:30:23.907Z,5.45
2022-10-18T10:32:53.934Z,7.25
2022-10-18T10:38:28.215Z,9.70
2022-10-18T10:40:56.904Z,7.97
2022-10-18T10:43:42.793Z,9.15
2022-10-18T10:46:13.302Z,8.45
2022-10-18T10:48:48.355Z,10.25
2022-10-18T10:51:19.835Z,8.93
2022-10-18T10:53:52.729Z,8.10
2022-10-18T10:56:29.042Z,7.40
2022-10-18T10:59:02.653Z,10.43
2022-10-18T11:01:33.123Z,8.82
2022-10-18T11:04:03.059Z,7.45
2022-10-18T11:06:46.387Z,6.80
2022-10-18T11:09:31.206Z,7.60
2022-10-18T11:12:19.147Z,9.00
2022-10-18T11:14:51.475Z,6.93
2022-10-18T11:17:28.476Z,10.25
2022-10-18T11:20:29.251Z,9.93
2022-10-18T11:23:03.931Z,6.25
2022-10-18T11:26:08.689Z,7.28
2022-10-18T11:28:51.496Z,7.18
2022-10-18T11:31:25.816Z,5.97
2022-10-18T11:34:09.641Z,7.55
2022-10-18T11:36:56.429Z,6.30
2022-10-18T11:39:46.456Z,6.38
2022-10-18T11:42:22.312Z,6.68
2022-10-18T11:45:01.365Z,7.85
2022-10-18T11:47:38.013Z,5.82
2022-10-18T11:50:15.148Z,7.22
2022-10-18T11:52:49.565Z,5.88
2022-10-18T11:55:33.435Z,4.72
2022-10-18T11:58:09.786Z,5.32
2022-10-18T12:00:49.538Z,5.05
2022-10-18T12:03:33.768Z,4.85
2022-10-18T12:06:06.516Z,3.50
2022-10-18T12:08:38.991Z,4.82
2022-10-18T12:11:14.588Z,3.17
2022-10-18T12:13:49.414Z,3.85
2022-10-18T12:16:33.455Z,3.70
2022-10-18T12:19:14.359Z,3.47
2022-10-18T12:21:43.481Z,3.30
2022-10-18T12:24:18.767Z,3.40
2022-10-18T12:26:51.135Z,2.70
2022-10-18T12:29:25.964Z,2.97
2022-10-18T12:31:56.633Z,3.15
2022-10-18T12:34:38.223Z,3.50
2022-10-18T12:37:29.391Z,3.00
2022-10-18T12:40:18.793Z,2.83
2022-10-18T12:42:52.713Z,2.95
2022-10-18T12:45:30.343Z,2.70
2022-10-18T12:48:01.598Z,3.05
2022-10-18T12:50:36.433Z,2.47
2022-10-18T12:53:20.027Z,2.70
2022-10-18T12:55:51.373Z,2.60
2022-10-18T12:58:29.878Z,2.28
2022-10-18T13:01:09.063Z,2.40
2022-10-18T13:03:56.482Z,2.58
2022-10-18T13:06:28.801Z,2.38
2022-10-18T13:09:19.035Z,1.88
2022-10-18T13:11:47.214Z,2.10
2022-10-18T13:14:53.613Z,1.63
2022-10-18T13:17:38.614Z,1.80
2022-10-18T13:20:26.193Z,1.83
2022-10-18T13:23:06.256Z,1.67
2022-10-18T13:25:42.373Z,1.55
2022-10-18T13:28:26.233Z,1.73
2022-10-18T13:30:58.910Z,1.80
2022-10-18T13:33:34.886Z,1.52
2022-10-18T13:36:06.216Z,1.88
2022-10-18T13:38:43.631Z,1.60
2022-10-18T13:41:16.015Z,1.73
2022-10-18T13:44:11.486Z,1.70
2022-10-18T13:47:18.133Z,1.52
2022-10-18T13:50:03.124Z,1.77
2022-10-18T13:53:01.571Z,1.80
2022-10-18T13:55:44.793Z,1.30
2022-10-18T13:58:20.976Z,1.58
2022-10-18T14:01:00.024Z,1.65
2022-10-18T14:03:58.052Z,1.58
2022-10-18T14:06:30.072Z,1.52
2022-10-18T14:09:09.522Z,1.45
2022-10-18T14:11:51.709Z,1.52
2022-10-18T14:14:26.919Z,1.90
2022-10-18T14:17:03.241Z,1.65
2022-10-18T14:19:37.746Z,1.42
2022-10-18T14:22:14.996Z,0.98
2022-10-18T14:24:46.859Z,1.05
2022-10-18T14:27:19.410Z,1.00
2022-10-18T14:29:48.104Z,1.00
2022-10-18T14:32:27.062Z,0.93
2022-10-18T14:35:09.192Z,0.77
2022-10-18T14:37:47.700Z,0.98
2022-10-18T14:40:35.508Z,1.05
2022-10-18T14:43:05.519Z,0.90
2022-10-18T14:45:33.901Z,0.80
2022-10-18T14:48:16.509Z,0.88
2022-10-18T14:50:47.131Z,0.80
2022-10-18T14:53:21.066Z,1.08
2022-10-18T14:55:55.730Z,1.30
2022-10-18T14:58:24.506Z,1.20
2022-10-18T15:00:52.551Z,1.17
2022-10-18T15:03:21.154Z,1.30
2022-10-18T15:05:59.375Z,1.20
2022-10-18T15:08:35.981Z,1.10
2022-10-18T15:11:04.222Z,1.27
2022-10-18T15:13:33.563Z,1.17
2022-10-18T15:16:02.321Z,1.30
2022-10-18T15:21:11.488Z,1.42
2022-10-18T15:23:40.863Z,1.45
2022-10-18T15:26:13.702Z,1.40
2022-10-18T15:28:50.197Z,1.17
2022-10-18T15:31:25.222Z,1.20
2022-10-18T15:33:54.344Z,1.42
2022-10-18T15:36:29.381Z,1.40
2022-10-18T15:39:08.459Z,1.40
2022-10-18T15:41:49.266Z,1.30
2022-10-18T15:44:23.023Z,1.58
2022-10-18T15:46:53.353Z,1.20
2022-10-18T15:49:51.413Z,1.40
2022-10-18T15:52:39.050Z,1.10
2022-10-18T15:55:45.152Z,1.42
2022-10-18T15:58:19.928Z,1.58
2022-10-18T16:00:49.861Z,1.88
2022-10-18T16:03:19.150Z,1.70
2022-10-18T16:05:47.501Z,1.60
2022-10-18T16:08:20.866Z,1.48
2022-10-18T16:10:49.314Z,1.38
2022-10-18T16:13:18.913Z,1.40
2022-10-18T16:15:47.124Z,1.23
2022-10-18T16:18:18.143Z,1.70
2022-10-18T16:20:46.412Z,1.60
2022-10-18T16:23:19.210Z,1.48
2022-10-18T16:25:47.386Z,1.42
2022-10-18T16:28:19.153Z,1.30
2022-10-18T16:30:53.854Z,1.42
2022-10-18T16:33:22.100Z,1.40
2022-10-18T16:35:50.641Z,1.40
2022-10-18T16:38:24.061Z,1.67
2022-10-18T16:40:52.095Z,1.58
2022-10-18T16:43:21.572Z,1.35
2022-10-18T16:45:50.281Z,1.98
2022-10-18T16:48:21.052Z,1.83
2022-10-18T16:50:49.508Z,1.67
2022-10-18T16:53:17.590Z,1.50
2022-10-18T16:55:45.649Z,2.25
2022-10-18T16:58:18.230Z,1.55
2022-10-18T17:00:47.907Z,1.77
2022-10-18T17:03:16.162Z,1.58
2022-10-18T17:05:44.425Z,1.52
2022-10-18T17:08:19.647Z,1.58
2022-10-18T17:10:49.775Z,2.03
2022-10-18T17:13:18.231Z,1.90
2022-10-18T17:15:47.648Z,2.05
2022-10-18T17:18:19.105Z,1.67
2022-10-18T17:20:48.079Z,2.17
2022-10-18T17:23:16.478Z,2.35
2022-10-18T17:25:57.561Z,2.78
2022-10-18T17:28:33.344Z,2.17
2022-10-18T17:31:02.809Z,2.30
2022-10-18T17:33:30.864Z,2.45
2022-10-18T17:35:59.049Z,2.15
2022-10-18T17:38:27.093Z,2.72
2022-10-18T17:40:55.430Z,2.28
2022-10-18T17:43:23.640Z,2.33
2022-10-18T17:45:55.848Z,2.20
2022-10-18T17:48:25.626Z,2.45
2022-10-18T17:50:53.690Z,2.30
2022-10-18T17:53:23.071Z,2.17
2022-10-18T17:55:51.308Z,2.30
2022-10-18T17:58:19.349Z,2.72
2022-10-18T18:00:47.352Z,2.13
2022-10-18T18:03:15.588Z,1.95
2022-10-18T18:05:45.055Z,2.05
2022-10-18T18:08:13.100Z,2.70
2022-10-18T18:10:41.224Z,2.22
2022-10-18T18:13:09.232Z,2.55
2022-10-18T18:15:37.451Z,2.70
2022-10-18T18:18:05.464Z,2.40
2022-10-18T18:20:33.569Z,2.17
2022-10-18T18:23:02.949Z,2.67
2022-10-18T18:25:31.063Z,2.80
2022-10-18T18:28:03.832Z,2.28
2022-10-18T18:30:35.504Z,2.50
2022-10-18T18:33:03.608Z,2.03
2022-10-18T18:35:31.881Z,1.98
2022-10-18T18:37:59.989Z,2.08
2022-10-18T18:40:29.615Z,2.28
2022-10-18T18:43:07.147Z,1.73
2022-10-18T18:45:52.137Z,1.60
2022-10-18T18:48:20.256Z,1.70
2022-10-18T18:50:50.620Z,1.80
2022-10-18T18:53:19.174Z,1.85
2022-10-18T18:55:50.781Z,2.25
2022-10-18T18:58:19.649Z,1.30
2022-10-18T19:00:48.224Z,1.58
2022-10-18T19:03:16.367Z,1.42
2022-10-18T19:05:44.412Z,1.60
2022-10-18T19:08:12.749Z,1.75
2022-10-18T19:10:40.971Z,1.60
2022-10-18T19:13:10.340Z,1.50
2022-10-18T19:15:38.402Z,1.60
2022-10-18T19:18:06.539Z,1.77
2022-10-18T19:20:34.722Z,1.30
2022-10-18T19:23:04.584Z,1.40
2022-10-18T19:25:32.629Z,1.50
2022-10-18T19:28:00.731Z,1.15
2022-10-18T19:30:30.158Z,1.35
2022-10-18T19:33:04.275Z,1.17
2022-10-18T19:35:32.337Z,1.23
2022-10-18T19:38:01.007Z,1.33
2022-10-18T19:40:29.057Z,1.50
2022-10-18T19:42:57.046Z,1.73
2022-10-18T19:45:25.413Z,1.60
2022-10-18T19:47:54.779Z,1.75
2022-10-18T19:50:22.867Z,1.50
2022-10-18T19:52:50.926Z,1.20
2022-10-18T19:55:19.304Z,1.40
2022-10-18T19:57:47.336Z,1.75
2022-10-18T20:00:19.338Z,1.70
2022-10-18T20:02:47.634Z,1.67
2022-10-18T20:05:17.218Z,1.50
2022-10-18T20:07:47.265Z,1.38
2022-10-18T20:10:15.485Z,1.70
2022-10-18T20:12:43.501Z,1.63
2022-10-18T20:15:12.627Z,1.42
2022-10-18T20:17:40.688Z,1.52
2022-10-18T20:20:09.841Z,1.58
2022-10-18T20:22:39.495Z,1.40
2022-10-18T20:25:07.807Z,1.23
2022-10-18T20:27:36.119Z,1.10
2022-10-18T20:30:08.925Z,1.40
2022-10-18T20:32:39.381Z,1.58
2022-10-18T20:35:08.013Z,1.27
2022-10-18T20:37:36.319Z,1.25
2022-10-18T20:40:06.362Z,1.48
2022-10-18T20:42:34.360Z,1.33
2022-10-18T20:47:36.721Z,1.75
2022-10-18T20:50:05.216Z,1.80
2022-10-18T20:52:33.287Z,1.52
2022-10-18T20:55:01.314Z,1.80
2022-10-18T20:57:34.277Z,1.50
2022-10-18T21:00:05.459Z,1.20
2022-10-18T21:02:33.507Z,1.48
2022-10-18T21:05:01.513Z,1.23
2022-10-18T21:07:30.989Z,1.42
2022-10-18T21:09:59.769Z,1.45
2022-10-18T21:12:29.071Z,1.80
2022-10-18T21:14:58.699Z,1.52
2022-10-18T21:17:26.714Z,1.30
2022-10-18T21:19:55.094Z,1.35
2022-10-18T21:22:23.085Z,1.23
2022-10-18T21:24:51.900Z,1.30
2022-10-18T21:27:19.907Z,1.20
2022-10-18T21:29:49.307Z,1.60
2022-10-18T21:32:18.865Z,1.15
2022-10-18T21:34:47.194Z,1.55
2022-10-18T21:37:15.252Z,1.17
2022-10-18T21:39:43.273Z,1.42
2022-10-18T21:42:12.300Z,1.70
2022-10-18T21:44:40.353Z,1.38
2022-10-18T21:47:08.445Z,1.30
2022-10-18T21:49:38.206Z,1.70
2022-10-18T21:52:06.562Z,1.58
2022-10-18T21:54:34.596Z,1.20
2022-10-18T21:57:02.675Z,1.10
2022-10-18T21:59:30.674Z,1.13
2022-10-18T22:01:59.054Z,1.42
2022-10-18T22:04:27.059Z,1.23
2022-10-18T22:06:56.470Z,1.40
2022-10-18T22:09:24.758Z,1.27
2022-10-18T22:11:54.476Z,1.48
2022-10-18T22:14:23.650Z,1.00
2022-10-18T22:16:51.929Z,1.35
2022-10-18T22:19:20.070Z,1.33
2022-10-18T22:21:48.597Z,1.70
2022-10-18T22:24:18.731Z,1.58
2022-10-18T22:26:47.470Z,1.30
2022-10-18T22:29:17.523Z,1.27
2022-10-18T22:31:46.834Z,1.08
2022-10-18T22:34:16.591Z,1.00
2022-10-18T22:36:45.511Z,1.30
2022-10-18T22:39:14.805Z,1.40
2022-10-18T22:41:44.584Z,1.90
2022-10-18T22:44:13.941Z,1.50
2022-10-18T22:46:43.198Z,1.23
2022-10-18T22:49:12.951Z,1.00
2022-10-18T22:51:41.305Z,1.35
2022-10-18T22:54:09.541Z,1.60
2022-10-18T22:56:37.558Z,1.27
2022-10-18T22:59:06.983Z,1.23
2022-10-18T23:01:35.061Z,1.40
2022-10-18T23:04:03.392Z,1.30
2022-10-18T23:06:33.309Z,1.33
2022-10-18T23:09:04.976Z,1.05
2022-10-18T23:11:34.478Z,1.15
2022-10-18T23:14:03.832Z,1.52
2022-10-18T23:16:33.409Z,1.27
2022-10-18T23:19:01.715Z,1.20
2022-10-18T23:21:30.543Z,1.27
2022-10-18T23:23:59.154Z,1.05
2022-10-18T23:26:28.814Z,1.10
2022-10-18T23:28:57.003Z,1.20
2022-10-18T23:31:26.780Z,1.40
2022-10-18T23:33:58.020Z,1.38
2022-10-18T23:36:26.614Z,1.17
2022-10-18T23:38:54.854Z,1.75
2022-10-18T23:41:22.881Z,1.25
2022-10-18T23:43:51.037Z,1.42
2022-10-18T23:46:20.222Z,0.93
2022-10-18T23:48:49.262Z,1.08
2022-10-18T23:51:19.140Z,1.00
2022-10-18T23:53:47.350Z,1.08
2022-10-18T23:56:17.150Z,1.10
2022-10-18T23:58:45.860Z,1.02
